Time;durP1;ratioP1;P1;durP2;ratioP2;P2;SDS_P1;SDS_P2;PMS_P1;PMS_P2;Temp;Humidity;BMP_temperature;BMP_pressure;BME280_temperature;BME280_humidity;BME280_pressure;Samples;Min_cycle;Max_cycle;Signal;HPM_P1;HPM_P2
2021/03/15 00:00:30;;;;;;;8.40;5.23;;;4.40;99.90;;;;;;5034151;28;20472;-67
2021/03/15 00:02:57;;;;;;;7.73;4.90;;;4.40;99.90;;;;;;5034391;28;20459;-67
2021/03/15 00:05:23;;;;;;;7.03;4.60;;;4.40;99.90;;;;;;5035271;28;20449;-67
2021/03/15 00:07:49;;;;;;;5.50;4.90;;;4.40;99.90;;;;;;5040443;28;20449;-67
2021/03/15 00:10:18;;;;;;;7.33;5.20;;;4.50;99.90;;;;;;5033606;28;20534;-67
2021/03/15 00:12:44;;;;;;;7.83;5.20;;;4.50;99.90;;;;;;5034141;28;20436;-67
2021/03/15 00:15:15;;;;;;;8.13;4.57;;;4.50;99.90;;;;;;5033812;28;20465;-67
2021/03/15 00:17:41;;;;;;;7.47;5.20;;;4.50;99.90;;;;;;5034252;28;20433;-67
2021/03/15 00:20:11;;;;;;;9.47;4.83;;;4.50;99.90;;;;;;5033882;28;20481;-67
2021/03/15 00:22:37;;;;;;;7.93;4.90;;;4.40;99.90;;;;;;5033779;28;21001;-67
2021/03/15 00:25:05;;;;;;;6.73;5.00;;;4.50;99.90;;;;;;5033969;28;20508;-67
2021/03/15 00:27:33;;;;;;;8.83;4.90;;;4.50;99.90;;;;;;5033988;28;20591;-67
2021/03/15 00:29:59;;;;;;;8.60;5.83;;;4.50;99.90;;;;;;5033874;28;20480;-67
2021/03/15 00:32:26;;;;;;;5.57;4.07;;;4.50;99.90;;;;;;5033807;28;20540;-68
2021/03/15 00:34:53;;;;;;;7.33;4.20;;;4.60;99.90;;;;;;5033247;28;20544;-67
2021/03/15 00:37:19;;;;;;;8.50;4.40;;;4.60;99.90;;;;;;5031765;28;20484;-67
2021/03/15 00:39:45;;;;;;;5.13;3.93;;;4.60;99.90;;;;;;5033803;28;20516;-67
2021/03/15 00:42:12;;;;;;;5.43;3.80;;;4.60;99.90;;;;;;5033812;28;20911;-68
2021/03/15 00:44:39;;;;;;;8.57;4.50;;;4.60;99.90;;;;;;5033793;28;20515;-67
2021/03/15 00:47:06;;;;;;;6.73;4.33;;;4.60;99.90;;;;;;5033855;28;20527;-67
2021/03/15 00:49:32;;;;;;;8.23;4.97;;;4.60;99.90;;;;;;5036596;28;20868;-68
2021/03/15 00:51:59;;;;;;;6.77;4.97;;;4.60;99.90;;;;;;5037709;28;20958;-67
2021/03/15 00:54:25;;;;;;;6.77;5.27;;;4.60;99.90;;;;;;5038360;28;20853;-67
2021/03/15 00:56:52;;;;;;;7.27;3.87;;;4.60;99.90;;;;;;5038627;28;20444;-66
2021/03/15 00:59:18;;;;;;;7.33;4.60;;;4.60;99.90;;;;;;5038083;28;20534;-66
2021/03/15 01:01:45;;;;;;;6.20;4.73;;;4.60;99.90;;;;;;5036824;28;20512;-66
2021/03/15 01:04:14;;;;;;;5.60;4.43;;;4.60;99.90;;;;;;5036344;28;20871;-66
2021/03/15 01:06:41;;;;;;;6.87;5.10;;;4.60;99.90;;;;;;5036421;28;20481;-66
2021/03/15 01:09:07;;;;;;;6.83;4.77;;;4.70;99.90;;;;;;5035886;28;20536;-67
2021/03/15 01:11:33;;;;;;;6.57;4.40;;;4.60;99.90;;;;;;5034897;28;20477;-66
2021/03/15 01:14:00;;;;;;;5.70;4.60;;;4.60;99.90;;;;;;5033949;28;20502;-66
2021/03/15 01:16:27;;;;;;;6.57;4.27;;;4.40;99.90;;;;;;5034486;28;20472;-66
2021/03/15 01:18:54;;;;;;;7.30;4.80;;;4.40;99.90;;;;;;5033846;28;20532;-66
2021/03/15 01:21:20;;;;;;;6.10;4.47;;;4.30;99.90;;;;;;5033906;28;20776;-66
2021/03/15 01:23:47;;;;;;;6.93;5.20;;;4.20;99.90;;;;;;5032609;28;20571;-66
2021/03/15 01:26:13;;;;;;;7.23;4.70;;;4.20;99.90;;;;;;5033478;28;20523;-66
2021/03/15 01:28:40;;;;;;;6.67;5.70;;;4.10;99.90;;;;;;5033177;28;20477;-66
2021/03/15 01:31:06;;;;;;;8.60;4.70;;;4.00;99.90;;;;;;5033123;28;20942;-66
2021/03/15 01:33:32;;;;;;;7.40;6.00;;;3.90;99.90;;;;;;5033226;28;20518;-66
2021/03/15 01:36:00;;;;;;;11.00;5.17;;;3.80;99.90;;;;;;5033248;28;20520;-66
2021/03/15 01:38:26;;;;;;;9.07;5.07;;;3.80;99.90;;;;;;5029069;28;20532;-66
2021/03/15 01:40:53;;;;;;;5.83;4.87;;;3.80;99.90;;;;;;5032507;28;20512;-66
2021/03/15 01:43:19;;;;;;;6.53;5.10;;;3.80;99.90;;;;;;5032749;28;20532;-66
2021/03/15 01:45:46;;;;;;;10.20;5.27;;;3.80;99.90;;;;;;5032593;28;20481;-66
2021/03/15 01:48:13;;;;;;;7.30;4.30;;;3.70;99.90;;;;;;5032627;28;20599;-67
2021/03/15 01:50:41;;;;;;;8.00;5.80;;;3.70;99.90;;;;;;5032670;28;20476;-67
2021/03/15 01:53:09;;;;;;;7.73;4.97;;;3.80;99.90;;;;;;5033261;28;20934;-66
2021/03/15 01:55:36;;;;;;;8.20;5.87;;;3.80;99.90;;;;;;5030413;28;20481;-66
2021/03/15 01:58:04;;;;;;;7.00;4.50;;;3.70;99.90;;;;;;5032511;28;20475;-66
2021/03/15 02:00:30;;;;;;;7.47;4.90;;;3.70;99.90;;;;;;5032238;28;20481;-66
2021/03/15 02:02:59;;;;;;;7.60;4.80;;;3.60;99.90;;;;;;5028186;28;20564;-66
2021/03/15 02:05:26;;;;;;;5.60;3.90;;;3.60;99.90;;;;;;5032334;28;20445;-66
2021/03/15 02:07:52;;;;;;;7.97;5.60;;;3.50;99.90;;;;;;5032269;28;20484;-66
2021/03/15 02:10:20;;;;;;;8.90;4.80;;;3.50;99.90;;;;;;5031142;28;20481;-66
2021/03/15 02:13:16;;;;;;;7.07;5.00;;;3.50;99.90;;;;;;5032393;28;20448;-67
2021/03/15 02:15:51;;;;;;;5.60;4.90;;;3.40;99.90;;;;;;5032481;28;20583;-66
2021/03/15 02:18:28;;;;;;;9.60;5.90;;;3.40;99.90;;;;;;5031921;28;20539;-66
2021/03/15 02:21:28;;;;;;;5.93;5.00;;;3.30;99.90;;;;;;5032115;28;21000;-69
2021/03/15 02:24:02;;;;;;;7.63;4.60;;;3.20;99.90;;;;;;5031912;28;20523;-66
2021/03/15 02:26:53;;;;;;;6.10;5.30;;;3.10;99.90;;;;;;5031710;28;20481;-66
2021/03/15 02:29:54;;;;;;;6.53;4.70;;;3.10;99.90;;;;;;5031760;28;20461;-66
2021/03/15 02:32:46;;;;;;;7.63;4.93;;;3.30;99.90;;;;;;5031946;28;20905;-66
2021/03/15 02:35:16;;;;;;;7.03;5.27;;;3.30;99.90;;;;;;5031717;28;20540;-66
2021/03/15 02:37:46;;;;;;;8.67;5.60;;;3.40;99.90;;;;;;5032358;28;20456;-67
2021/03/15 02:40:19;;;;;;;7.53;6.00;;;3.40;99.90;;;;;;5031439;28;20880;-66
2021/03/15 02:42:50;;;;;;;8.30;5.20;;;3.40;99.90;;;;;;5031646;28;21070;-66
2021/03/15 02:45:17;;;;;;;6.23;5.60;;;3.40;99.90;;;;;;5031546;28;21035;-66
2021/03/15 02:47:48;;;;;;;7.10;5.30;;;3.30;99.90;;;;;;5031501;28;20473;-67
2021/03/15 02:50:16;;;;;;;7.90;5.50;;;3.30;99.90;;;;;;5031401;28;20540;-66
2021/03/15 02:52:46;;;;;;;8.60;6.10;;;3.30;99.90;;;;;;5031541;28;20938;-66
2021/03/15 02:55:15;;;;;;;7.83;5.43;;;3.30;99.90;;;;;;5031156;28;20978;-67
2021/03/15 02:57:44;;;;;;;9.10;5.67;;;3.30;99.90;;;;;;5031427;28;20483;-66
2021/03/15 03:00:12;;;;;;;7.37;5.47;;;3.30;99.90;;;;;;5030985;28;20524;-67
2021/03/15 03:02:42;;;;;;;11.67;5.83;;;3.40;99.90;;;;;;5031152;28;20512;-67
2021/03/15 03:05:10;;;;;;;7.83;6.37;;;3.30;99.90;;;;;;5031349;28;20467;-67
2021/03/15 03:07:40;;;;;;;8.03;5.80;;;3.20;99.90;;;;;;5031540;28;20511;-67
2021/03/15 03:10:08;;;;;;;8.30;5.73;;;3.20;99.90;;;;;;5031054;28;20521;-67
2021/03/15 03:12:37;;;;;;;8.97;5.93;;;3.10;99.90;;;;;;5049913;23;20579;-72
2021/03/15 03:15:07;;;;;;;10.47;5.70;;;3.00;99.90;;;;;;5045403;28;20920;-72
2021/03/15 03:17:37;;;;;;;6.83;6.13;;;3.00;99.90;;;;;;5050923;28;20479;-72
2021/03/15 03:20:07;;;;;;;9.00;6.60;;;3.00;99.90;;;;;;5050680;28;20456;-72
2021/03/15 03:22:34;;;;;;;8.57;6.30;;;3.00;99.90;;;;;;5054109;28;20484;-72
2021/03/15 03:25:02;;;;;;;8.80;5.90;;;2.90;99.90;;;;;;5054845;28;20495;-73
2021/03/15 03:27:28;;;;;;;12.20;6.57;;;2.90;99.90;;;;;;5054881;28;20491;-72
2021/03/15 03:29:55;;;;;;;8.03;6.27;;;2.90;99.90;;;;;;5054674;28;20475;-72
2021/03/15 03:32:22;;;;;;;12.93;6.60;;;3.00;99.90;;;;;;5054697;28;20526;-73
2021/03/15 03:34:50;;;;;;;12.03;6.93;;;2.90;99.90;;;;;;5054762;28;20547;-72
2021/03/15 03:37:16;;;;;;;8.40;7.00;;;2.90;99.90;;;;;;5054395;28;20450;-72
2021/03/15 03:39:43;;;;;;;9.20;6.80;;;2.90;99.90;;;;;;5054232;28;20454;-72
2021/03/15 03:42:11;;;;;;;18.13;6.73;;;2.90;99.90;;;;;;5054718;28;20511;-71
2021/03/15 03:44:38;;;;;;;13.03;7.83;;;2.90;99.90;;;;;;5055123;28;20543;-72
2021/03/15 03:47:04;;;;;;;9.83;6.50;;;3.00;99.90;;;;;;5054990;28;20444;-71
2021/03/15 03:49:31;;;;;;;8.47;6.90;;;3.00;99.90;;;;;;5054735;28;20526;-71
2021/03/15 03:52:00;;;;;;;9.17;6.07;;;3.10;99.90;;;;;;5055285;28;20519;-71
2021/03/15 03:54:29;;;;;;;10.60;5.90;;;3.20;99.90;;;;;;5054927;28;20471;-71
2021/03/15 03:56:59;;;;;;;7.50;5.97;;;3.20;99.90;;;;;;5066286;28;20497;-71
2021/03/15 03:59:30;;;;;;;9.47;5.90;;;3.30;99.90;;;;;;5074604;28;20532;-71
2021/03/15 04:01:59;;;;;;;7.50;5.90;;;3.30;99.90;;;;;;5074767;28;20478;-71
2021/03/15 04:04:28;;;;;;;13.07;6.40;;;3.40;99.90;;;;;;5074766;28;21095;-72
2021/03/15 04:06:55;;;;;;;11.03;6.20;;;3.50;99.90;;;;;;5074547;28;20443;-71
2021/03/15 04:09:28;;;;;;;9.43;6.57;;;3.50;99.90;;;;;;5074801;28;20538;-71
2021/03/15 04:11:59;;;;;;;11.00;6.13;;;3.60;99.90;;;;;;5074641;28;20493;-71
2021/03/15 04:14:30;;;;;;;7.37;5.50;;;3.60;99.90;;;;;;5074420;28;20467;-72
2021/03/15 04:17:00;;;;;;;8.80;6.23;;;3.60;99.90;;;;;;5074711;28;20481;-71
2021/03/15 04:19:31;;;;;;;7.87;5.40;;;3.70;99.90;;;;;;5074492;28;20453;-71
2021/03/15 04:22:03;;;;;;;9.33;6.33;;;3.70;99.90;;;;;;5075044;28;20565;-72
2021/03/15 04:24:30;;;;;;;7.47;5.53;;;3.70;99.90;;;;;;5074469;28;20490;-71
2021/03/15 04:26:59;;;;;;;9.90;5.80;;;3.80;99.90;;;;;;5074165;28;20482;-72
2021/03/15 04:29:27;;;;;;;8.23;5.60;;;3.80;99.90;;;;;;5074177;28;20487;-72
2021/03/15 04:31:54;;;;;;;8.30;5.10;;;3.80;99.90;;;;;;5072454;28;20439;-71
2021/03/15 04:34:21;;;;;;;7.90;5.30;;;3.80;99.90;;;;;;5074500;28;20550;-72
2021/03/15 04:36:49;;;;;;;8.53;5.23;;;3.80;99.90;;;;;;5073894;28;20997;-71
2021/03/15 04:39:16;;;;;;;8.83;5.83;;;3.80;99.90;;;;;;5074127;28;20451;-71
2021/03/15 04:41:43;;;;;;;8.50;5.50;;;3.80;99.90;;;;;;5073751;28;21048;-71
2021/03/15 04:44:12;;;;;;;9.07;5.10;;;3.80;99.90;;;;;;5074420;28;20884;-71
2021/03/15 04:46:41;;;;;;;8.70;5.50;;;3.80;99.90;;;;;;5074788;28;20519;-72
2021/03/15 04:49:08;;;;;;;7.60;5.00;;;3.80;99.90;;;;;;5073486;28;20538;-71
2021/03/15 04:51:37;;;;;;;7.83;5.20;;;3.80;99.90;;;;;;5074097;28;20490;-71
2021/03/15 04:54:05;;;;;;;4.80;4.23;;;3.80;99.90;;;;;;5073599;28;20463;-71
2021/03/15 04:56:34;;;;;;;6.67;4.60;;;3.90;99.90;;;;;;5065945;28;20883;-71
2021/03/15 04:59:01;;;;;;;6.40;4.70;;;3.90;99.90;;;;;;5072265;28;20534;-71
2021/03/15 05:01:30;;;;;;;7.03;5.00;;;3.90;99.90;;;;;;5073700;28;20570;-71
2021/03/15 05:03:58;;;;;;;6.30;4.33;;;3.90;99.90;;;;;;5073301;28;20471;-71
2021/03/15 05:06:25;;;;;;;5.00;4.20;;;3.90;99.90;;;;;;5073463;28;20450;-71
2021/03/15 05:08:55;;;;;;;7.40;4.47;;;3.90;99.90;;;;;;5073107;28;20538;-72
2021/03/15 05:11:27;;;;;;;6.10;4.67;;;3.90;99.90;;;;;;5073028;28;20512;-71
2021/03/15 05:13:54;;;;;;;5.93;4.57;;;3.90;99.90;;;;;;5073449;28;20506;-71
2021/03/15 05:16:21;;;;;;;5.20;4.13;;;3.90;99.90;;;;;;5072547;28;20530;-71
2021/03/15 05:18:51;;;;;;;6.70;5.00;;;4.00;99.90;;;;;;5072796;28;20447;-72
2021/03/15 05:21:19;;;;;;;5.90;4.80;;;4.00;99.90;;;;;;5072941;28;20471;-72
2021/03/15 05:23:46;;;;;;;7.00;4.40;;;4.00;99.90;;;;;;5072767;28;20564;-72
2021/03/15 05:26:13;;;;;;;7.93;4.37;;;4.00;99.90;;;;;;5072675;28;20551;-72
2021/03/15 05:28:40;;;;;;;7.90;4.27;;;4.00;99.90;;;;;;5072676;28;20467;-71
2021/03/15 05:31:08;;;;;;;11.63;5.37;;;4.10;99.90;;;;;;5073328;28;20836;-71
2021/03/15 05:33:37;;;;;;;8.67;4.13;;;4.10;99.90;;;;;;5072729;28;20546;-71
2021/03/15 05:36:08;;;;;;;7.73;4.93;;;4.10;99.90;;;;;;5072380;28;20455;-72
2021/03/15 05:38:35;;;;;;;8.30;4.30;;;4.00;99.90;;;;;;5066915;28;20455;-70
2021/03/15 05:41:03;;;;;;;6.57;4.73;;;4.00;99.90;;;;;;5071981;28;20444;-70
2021/03/15 05:43:41;;;;;;;8.20;4.77;;;4.00;99.90;;;;;;5071069;28;20488;-73
2021/03/15 05:46:43;;;;;;;6.50;4.73;;;4.00;99.90;;;;;;5071961;28;20492;-72
2021/03/15 05:49:30;;;;;;;8.43;4.73;;;3.90;99.90;;;;;;5071595;28;20441;-72
2021/03/15 05:52:04;;;;;;;7.67;5.10;;;3.90;99.90;;;;;;5071779;28;20509;-72
2021/03/15 05:55:22;;;;;;;6.87;5.93;;;4.00;99.90;;;;;;5071792;28;20823;-72
2021/03/15 05:58:24;;;;;;;7.17;4.37;;;4.00;99.90;;;;;;4989592;28;20522;-70
2021/03/15 06:01:09;;;;;;;6.70;4.70;;;4.00;99.90;;;;;;5069445;28;20968;-72
2021/03/15 06:04:09;;;;;;;7.90;4.60;;;4.00;99.90;;;;;;5064482;28;20985;-68
2021/03/15 06:06:38;;;;;;;10.50;4.50;;;3.90;99.90;;;;;;5062630;28;20470;-71
2021/03/15 06:09:06;;;;;;;7.90;4.30;;;3.90;99.90;;;;;;5068426;28;20819;-71
2021/03/15 06:11:40;;;;;;;5.87;4.50;;;3.90;99.90;;;;;;5070246;28;20542;-72
2021/03/15 06:14:07;;;;;;;9.77;4.37;;;4.00;99.90;;;;;;5069288;28;20466;-73
2021/03/15 06:16:36;;;;;;;8.33;5.00;;;4.00;99.90;;;;;;5070027;28;20530;-73
2021/03/15 06:19:02;;;;;;;6.37;4.33;;;4.00;99.90;;;;;;5043455;28;20527;-73
2021/03/15 06:21:31;;;;;;;7.97;4.87;;;4.00;99.90;;;;;;5049577;28;20567;-73
2021/03/15 06:23:59;;;;;;;6.77;4.60;;;4.00;99.90;;;;;;5051037;28;20468;-73
2021/03/15 06:26:27;;;;;;;7.83;4.90;;;4.00;99.90;;;;;;5050803;28;20931;-73
2021/03/15 06:28:55;;;;;;;9.87;4.57;;;4.00;99.90;;;;;;5050247;28;20448;-72
2021/03/15 06:31:22;;;;;;;8.67;5.70;;;4.00;99.90;;;;;;5050093;28;20502;-73
2021/03/15 06:33:50;;;;;;;5.87;4.40;;;4.00;99.90;;;;;;5050898;28;20522;-74
2021/03/15 06:36:17;;;;;;;7.83;4.60;;;4.00;99.90;;;;;;5051144;28;20575;-73
2021/03/15 06:38:45;;;;;;;5.50;4.20;;;4.00;99.90;;;;;;5050634;28;20523;-74
2021/03/15 06:41:15;;;;;;;8.63;4.17;;;4.00;99.90;;;;;;5051281;28;20452;-73
2021/03/15 06:43:41;;;;;;;4.90;4.07;;;4.00;99.90;;;;;;5049876;28;20503;-74
2021/03/15 06:46:09;;;;;;;10.80;4.67;;;4.10;99.90;;;;;;5050184;28;20443;-74
2021/03/15 06:48:36;;;;;;;6.13;4.63;;;4.20;99.90;;;;;;5051435;28;20444;-73
2021/03/15 06:51:03;;;;;;;7.30;4.30;;;4.20;99.90;;;;;;5050040;28;20448;-72
2021/03/15 06:53:37;;;;;;;7.63;4.80;;;4.40;99.90;;;;;;5068853;28;20478;-72
2021/03/15 06:56:10;;;;;;;7.23;4.43;;;4.50;99.90;;;;;;5071216;28;20474;-71
2021/03/15 06:58:37;;;;;;;4.57;4.10;;;4.60;99.90;;;;;;5070540;28;20515;-71
2021/03/15 07:01:22;;;;;;;5.10;3.90;;;4.60;99.90;;;;;;5048560;28;20526;-72
2021/03/15 07:03:49;;;;;;;5.03;4.10;;;4.60;99.90;;;;;;5048345;28;20505;-71
2021/03/15 07:06:19;;;;;;;6.13;4.27;;;4.70;99.90;;;;;;5038188;28;21148;-72
2021/03/15 07:08:46;;;;;;;4.50;3.57;;;4.70;99.90;;;;;;5050514;28;20444;-72
2021/03/15 07:11:24;;;;;;;4.60;3.93;;;4.80;99.90;;;;;;5050666;28;20539;-72
2021/03/15 07:13:51;;;;;;;5.20;3.43;;;4.80;99.90;;;;;;5050474;28;20502;-71
2021/03/15 07:16:26;;;;;;;8.53;3.63;;;4.80;99.90;;;;;;5050591;28;20451;-71
2021/03/15 07:18:53;;;;;;;5.93;3.60;;;4.80;99.90;;;;;;5050502;28;21110;-70
2021/03/15 07:21:32;;;;;;;4.13;3.57;;;4.80;99.90;;;;;;5050393;28;20946;-71
2021/03/15 07:23:58;;;;;;;4.40;2.83;;;4.90;99.90;;;;;;5050874;28;21022;-72
2021/03/15 07:26:26;;;;;;;5.57;3.20;;;5.00;99.90;;;;;;5050414;28;20453;-72
2021/03/15 07:28:54;;;;;;;4.83;3.50;;;5.10;99.90;;;;;;5049858;28;21117;-71
2021/03/15 07:31:25;;;;;;;6.10;2.80;;;5.20;99.90;;;;;;5050437;28;20463;-71
2021/03/15 07:34:19;;;;;;;7.73;3.00;;;5.20;99.90;;;;;;5050138;28;20990;-71
2021/03/15 07:36:49;;;;;;;3.47;2.40;;;5.20;99.90;;;;;;5038214;28;20528;-71
2021/03/15 07:39:16;;;;;;;3.53;2.17;;;5.00;99.90;;;;;;5030011;28;20480;-71
2021/03/15 07:41:45;;;;;;;2.60;1.90;;;4.80;99.90;;;;;;5040673;28;20618;-71
2021/03/15 07:44:17;;;;;;;2.80;1.77;;;4.60;99.90;;;;;;5049298;28;20495;-71
2021/03/15 07:46:45;;;;;;;3.17;2.27;;;4.50;99.90;;;;;;5050224;28;21026;-71
2021/03/15 07:49:22;;;;;;;2.57;1.70;;;4.30;99.90;;;;;;5049799;28;20448;-71
2021/03/15 07:51:54;;;;;;;2.20;1.37;;;4.20;99.90;;;;;;5050052;28;20795;-71
2021/03/15 07:54:25;;;;;;;3.00;1.70;;;4.30;99.90;;;;;;5046942;28;20460;-71
2021/03/15 07:57:16;;;;;;;2.20;1.40;;;4.30;99.90;;;;;;5049315;28;20475;-72
2021/03/15 07:59:43;;;;;;;2.10;1.40;;;4.40;99.90;;;;;;5048414;28;20528;-71
2021/03/15 08:02:17;;;;;;;1.93;1.43;;;4.40;99.90;;;;;;5042985;28;21178;-70
2021/03/15 08:04:45;;;;;;;2.20;1.63;;;4.40;99.90;;;;;;5030290;28;21062;-70
2021/03/15 08:07:14;;;;;;;3.30;1.73;;;4.40;99.90;;;;;;5034533;28;20531;-70
2021/03/15 08:09:42;;;;;;;3.20;1.57;;;4.50;99.90;;;;;;5050706;28;20539;-70
2021/03/15 08:12:11;;;;;;;2.20;1.60;;;4.60;99.90;;;;;;5053601;28;20514;-70
2021/03/15 08:14:39;;;;;;;2.40;1.50;;;4.70;99.90;;;;;;5053659;28;20546;-70
2021/03/15 08:17:09;;;;;;;2.83;1.63;;;4.70;99.90;;;;;;5053601;28;20439;-71
2021/03/15 08:19:37;;;;;;;2.87;1.67;;;4.70;99.90;;;;;;5053289;28;21076;-70
2021/03/15 08:22:05;;;;;;;2.20;1.53;;;4.70;99.90;;;;;;5053460;28;20507;-71
2021/03/15 08:24:37;;;;;;;2.77;2.00;;;4.70;99.90;;;;;;5053425;28;20460;-71
2021/03/15 08:27:04;;;;;;;2.50;1.63;;;4.70;99.90;;;;;;5053361;28;20535;-70
2021/03/15 08:29:36;;;;;;;3.23;1.70;;;4.80;99.90;;;;;;5052915;28;20493;-70
2021/03/15 08:32:05;;;;;;;2.70;1.83;;;4.80;99.90;;;;;;5053481;28;20464;-71
2021/03/15 08:34:32;;;;;;;2.00;1.40;;;4.90;99.90;;;;;;5053338;28;20541;-71
2021/03/15 08:36:58;;;;;;;3.00;2.10;;;4.80;99.90;;;;;;5053288;28;20527;-71
2021/03/15 08:39:40;;;;;;;2.60;1.90;;;4.90;99.90;;;;;;5052943;28;20440;-71
2021/03/15 08:42:27;;;;;;;2.97;1.83;;;4.90;99.90;;;;;;5053327;28;20463;-71
2021/03/15 08:44:54;;;;;;;2.50;1.57;;;5.00;99.90;;;;;;5053120;28;20554;-71
2021/03/15 08:47:50;;;;;;;2.40;1.63;;;5.10;99.90;;;;;;5052046;28;20809;-71
2021/03/15 08:50:41;;;;;;;2.90;1.70;;;5.10;99.90;;;;;;5043260;28;20535;-71
2021/03/15 08:53:09;;;;;;;2.40;1.60;;;5.30;99.90;;;;;;5047535;28;20536;-71
2021/03/15 08:55:49;;;;;;;3.10;1.60;;;5.30;99.90;;;;;;5033008;28;20500;-71
2021/03/15 08:58:37;;;;;;;3.43;2.20;;;5.30;99.90;;;;;;5032968;28;20466;-71
2021/03/15 09:01:05;;;;;;;2.27;1.47;;;5.40;99.90;;;;;;5032993;28;20448;-71
2021/03/15 09:03:48;;;;;;;2.30;1.90;;;5.40;99.90;;;;;;5032771;28;20571;-71
2021/03/15 09:06:15;;;;;;;4.33;1.13;;;5.40;99.90;;;;;;5033765;28;20480;-70
2021/03/15 09:08:58;;;;;;;2.40;1.47;;;5.30;99.90;;;;;;5032432;28;20449;-70
2021/03/15 09:11:49;;;;;;;2.50;2.10;;;5.20;99.90;;;;;;5033094;28;20460;-71
2021/03/15 09:14:36;;;;;;;2.70;1.63;;;5.10;99.90;;;;;;5033497;28;20840;-71
2021/03/15 09:17:32;;;;;;;2.17;1.20;;;5.20;99.90;;;;;;5032666;28;20859;-71
2021/03/15 09:20:16;;;;;;;2.13;1.20;;;5.30;99.90;;;;;;5028976;28;20989;-71
2021/03/15 09:22:42;;;;;;;2.40;1.63;;;5.30;99.90;;;;;;5032987;28;21024;-71
2021/03/15 09:25:22;;;;;;;3.37;1.70;;;5.40;99.90;;;;;;5044010;28;20487;-71
2021/03/15 09:27:55;;;;;;;2.43;1.50;;;5.40;99.90;;;;;;5034977;28;20453;-72
2021/03/15 09:30:24;;;;;;;2.53;1.60;;;5.50;99.90;;;;;;5032793;28;20531;-71
2021/03/15 09:32:53;;;;;;;2.33;1.60;;;5.40;99.90;;;;;;5032652;28;20492;-71
2021/03/15 09:35:29;;;;;;;2.70;1.83;;;5.40;99.90;;;;;;5032438;28;20571;-71
2021/03/15 09:38:02;;;;;;;2.57;1.90;;;5.50;99.90;;;;;;5048635;28;20479;-71
2021/03/15 09:40:32;;;;;;;2.40;1.40;;;5.40;99.90;;;;;;5037237;28;20445;-72
2021/03/15 09:43:00;;;;;;;3.10;1.40;;;5.50;99.90;;;;;;5043122;28;21082;-72
2021/03/15 09:45:34;;;;;;;2.70;2.10;;;5.50;99.90;;;;;;5032077;28;20500;-72
2021/03/15 09:48:02;;;;;;;3.63;1.80;;;5.60;99.90;;;;;;5032019;28;20483;-72
2021/03/15 09:50:30;;;;;;;3.60;2.23;;;5.70;99.90;;;;;;5031648;28;20455;-71
2021/03/15 09:53:08;;;;;;;2.67;1.53;;;5.80;99.90;;;;;;5031931;28;20524;-71
2021/03/15 09:55:34;;;;;;;3.47;2.40;;;5.90;99.90;;;;;;5031870;28;20547;-72
2021/03/15 09:58:06;;;;;;;2.90;1.90;;;5.90;99.90;;;;;;5031787;28;20444;-72
2021/03/15 10:00:33;;;;;;;3.77;2.17;;;5.90;99.90;;;;;;5031393;28;20452;-71
2021/03/15 10:02:59;;;;;;;5.07;2.67;;;6.00;99.90;;;;;;5031571;28;21072;-72
2021/03/15 10:05:26;;;;;;;3.30;2.30;;;6.00;99.90;;;;;;5031744;28;20552;-72
2021/03/15 10:07:53;;;;;;;4.23;2.73;;;6.10;99.90;;;;;;5031803;28;20465;-71
2021/03/15 10:10:21;;;;;;;3.73;2.43;;;6.10;99.90;;;;;;5031453;28;20532;-71
2021/03/15 10:12:49;;;;;;;3.30;2.20;;;6.20;99.90;;;;;;5031671;28;20968;-71
2021/03/15 10:15:17;;;;;;;3.30;2.13;;;6.20;99.90;;;;;;5031295;28;20552;-71
2021/03/15 10:17:45;;;;;;;4.20;2.43;;;6.30;99.90;;;;;;5030978;28;20481;-71
2021/03/15 10:20:23;;;;;;;3.10;2.20;;;6.20;99.90;;;;;;5031075;28;20509;-71
2021/03/15 10:22:50;;;;;;;2.90;2.40;;;6.20;99.90;;;;;;5031253;28;21037;-71
2021/03/15 10:25:16;;;;;;;2.83;2.03;;;6.20;99.90;;;;;;5031316;28;20468;-71
2021/03/15 10:27:53;;;;;;;3.23;2.23;;;6.20;99.90;;;;;;5031341;28;20524;-71
2021/03/15 10:30:20;;;;;;;3.00;2.20;;;6.20;99.90;;;;;;5030413;28;20471;-71
2021/03/15 10:32:47;;;;;;;3.87;3.00;;;6.30;99.90;;;;;;5030989;28;20483;-71
2021/03/15 10:35:14;;;;;;;3.10;2.53;;;6.30;99.90;;;;;;5031077;28;20990;-72
2021/03/15 10:37:42;;;;;;;2.93;2.47;;;6.40;99.90;;;;;;5030815;28;20452;-73
2021/03/15 10:40:11;;;;;;;4.30;2.60;;;6.60;99.90;;;;;;5030820;28;20448;-72
2021/03/15 10:42:40;;;;;;;4.03;2.67;;;6.60;99.90;;;;;;5030943;28;20904;-72
2021/03/15 10:45:09;;;;;;;3.33;2.20;;;6.80;99.90;;;;;;5031311;28;20496;-72
2021/03/15 10:47:38;;;;;;;3.00;2.40;;;6.60;99.90;;;;;;5030885;28;20539;-72
2021/03/15 10:50:24;;;;;;;4.90;2.60;;;6.60;99.90;;;;;;5030736;28;20524;-72
2021/03/15 10:52:51;;;;;;;4.57;2.60;;;6.50;99.90;;;;;;5030907;28;20481;-72
2021/03/15 10:55:19;;;;;;;2.97;2.23;;;6.50;99.90;;;;;;5030648;28;20548;-73
2021/03/15 10:58:03;;;;;;;3.37;3.07;;;6.50;99.90;;;;;;5030906;28;20448;-72
2021/03/15 11:00:32;;;;;;;3.53;2.23;;;6.50;99.90;;;;;;5030269;28;20527;-72
2021/03/15 11:02:59;;;;;;;4.73;2.90;;;6.50;99.90;;;;;;5030715;28;20500;-73
2021/03/15 11:05:26;;;;;;;3.30;2.40;;;6.50;99.90;;;;;;5030572;28;20496;-73
2021/03/15 11:07:53;;;;;;;3.70;2.93;;;6.50;99.90;;;;;;5030612;28;20967;-72
2021/03/15 11:10:22;;;;;;;3.10;2.40;;;6.50;99.90;;;;;;5030350;28;21031;-73
2021/03/15 11:12:52;;;;;;;3.87;2.80;;;6.60;99.90;;;;;;5030544;28;20540;-73
2021/03/15 11:15:33;;;;;;;4.50;2.87;;;6.60;99.90;;;;;;5030954;28;20971;-70
2021/03/15 11:18:07;;;;;;;3.07;2.57;;;6.70;99.90;;;;;;5030430;28;20444;-72
2021/03/15 11:20:42;;;;;;;2.73;2.10;;;6.70;99.90;;;;;;5030399;28;20449;-71
2021/03/15 11:23:10;;;;;;;3.80;3.07;;;6.80;99.90;;;;;;5030673;28;20476;-72
2021/03/15 11:25:36;;;;;;;3.20;2.40;;;6.80;99.90;;;;;;5030502;28;20916;-72
2021/03/15 11:28:06;;;;;;;4.07;2.67;;;6.80;99.90;;;;;;5030448;28;20967;-73
2021/03/15 11:30:34;;;;;;;3.37;2.90;;;6.90;99.90;;;;;;5030202;28;20535;-72
2021/03/15 11:33:07;;;;;;;3.20;2.90;;;6.90;99.90;;;;;;5030487;28;21206;-73
2021/03/15 11:35:33;;;;;;;3.70;2.37;;;6.90;99.90;;;;;;5030385;28;20471;-73
2021/03/15 11:38:01;;;;;;;5.00;2.37;;;6.90;99.90;;;;;;5030134;28;20540;-74
2021/03/15 11:40:39;;;;;;;3.10;2.30;;;6.90;99.90;;;;;;5030069;28;20540;-72
2021/03/15 11:43:07;;;;;;;3.57;3.00;;;6.90;99.90;;;;;;5032708;28;20927;-73
2021/03/15 11:45:33;;;;;;;3.00;2.50;;;6.80;99.90;;;;;;5034318;28;20556;-73
2021/03/15 11:48:01;;;;;;;3.37;2.97;;;6.70;99.90;;;;;;5034373;28;21042;-73
2021/03/15 11:50:30;;;;;;;5.10;2.63;;;6.80;99.90;;;;;;5034132;28;20452;-73
2021/03/15 11:52:57;;;;;;;2.53;2.33;;;7.10;99.90;;;;;;5034429;28;20998;-73
2021/03/15 11:55:23;;;;;;;3.30;2.57;;;7.40;99.90;;;;;;5034452;28;20468;-73
2021/03/15 11:57:50;;;;;;;2.57;2.30;;;7.60;99.90;;;;;;5033874;28;20575;-73
2021/03/15 12:00:18;;;;;;;2.50;2.03;;;7.70;99.90;;;;;;5034033;28;20480;-73
2021/03/15 12:02:45;;;;;;;2.90;2.40;;;7.90;99.90;;;;;;5034237;28;20485;-74
2021/03/15 12:05:13;;;;;;;2.17;1.70;;;8.00;99.90;;;;;;5034615;28;20607;-73
2021/03/15 12:07:41;;;;;;;2.23;1.87;;;8.00;99.90;;;;;;5034052;28;20503;-72
2021/03/15 12:10:10;;;;;;;3.30;2.20;;;8.10;99.90;;;;;;5033902;28;20492;-72
2021/03/15 12:12:37;;;;;;;3.30;2.30;;;8.10;99.90;;;;;;5033841;28;20543;-72
2021/03/15 12:15:06;;;;;;;2.60;1.77;;;8.20;99.90;;;;;;5033923;28;20460;-73
2021/03/15 12:17:33;;;;;;;2.10;1.70;;;8.20;99.90;;;;;;5033673;28;20488;-72
2021/03/15 12:19:59;;;;;;;1.87;1.30;;;8.10;99.90;;;;;;5033275;28;20440;-73
2021/03/15 12:22:26;;;;;;;2.17;1.30;;;8.10;99.90;;;;;;5033527;28;20567;-73
2021/03/15 12:24:53;;;;;;;2.40;1.60;;;8.00;99.90;;;;;;5033581;28;20510;-72
2021/03/15 12:27:19;;;;;;;3.03;1.80;;;7.90;99.90;;;;;;5033863;28;20535;-73
2021/03/15 12:29:46;;;;;;;2.10;1.90;;;7.90;99.90;;;;;;5033484;28;20484;-73
2021/03/15 12:32:13;;;;;;;2.73;2.40;;;7.70;99.90;;;;;;5033372;28;20443;-71
2021/03/15 12:34:39;;;;;;;2.33;2.10;;;7.60;99.90;;;;;;5032710;28;20464;-72
2021/03/15 12:37:05;;;;;;;2.97;2.67;;;7.60;99.90;;;;;;5033459;28;20456;-71
2021/03/15 12:39:32;;;;;;;3.10;2.63;;;7.70;99.90;;;;;;5031911;28;20998;-73
2021/03/15 12:41:59;;;;;;;2.97;2.23;;;7.70;99.90;;;;;;5031782;28;21183;-73
2021/03/15 12:44:26;;;;;;;3.63;2.60;;;7.80;99.90;;;;;;5032390;28;20465;-75
2021/03/15 12:46:53;;;;;;;2.77;2.10;;;7.90;99.90;;;;;;5033030;28;20540;-73
2021/03/15 12:49:19;;;;;;;2.77;2.47;;;8.00;99.90;;;;;;5031555;28;20818;-74
2021/03/15 12:51:48;;;;;;;2.50;2.30;;;8.20;99.90;;;;;;5032781;28;20557;-71
2021/03/15 12:54:15;;;;;;;3.37;2.60;;;8.40;99.90;;;;;;5032323;28;20476;-73
2021/03/15 12:56:41;;;;;;;2.47;2.20;;;8.30;99.90;;;;;;5033262;28;20531;-73
2021/03/15 12:59:08;;;;;;;3.67;2.97;;;8.30;99.90;;;;;;5032552;28;20889;-73
2021/03/15 13:01:35;;;;;;;3.17;2.43;;;8.50;99.90;;;;;;5032841;28;20485;-72
2021/03/15 13:04:01;;;;;;;2.90;2.17;;;9.30;99.90;;;;;;5042336;28;20489;-72
2021/03/15 13:06:28;;;;;;;2.53;2.20;;;10.00;99.90;;;;;;5072378;28;20526;-73
2021/03/15 13:08:54;;;;;;;2.73;2.37;;;10.00;99.90;;;;;;5071767;28;20490;-73
2021/03/15 13:11:21;;;;;;;2.40;2.20;;;9.90;99.90;;;;;;5071633;28;21040;-74